Rowena, Missouri
Current Conditions -  °F | °C
As of 3:54 AM on Saturday 22 Nov 2014 (Local Time) from KCOU Reporting Station
Overcast Overcast  
Wind Chill: 45°   Ceiling: 2300
Heat Index: 49°   Visibility: 10mi
Dew Point: 44°   Wind: 10mph
Humidity: 83%   Direction: 170°S
Pressure: 30.08"   Gusts: NA
Location:  39.2043°N, 92.1568°W
Report Text: KCOU 220954Z AUTO 17009KT 10SM OVC023 09/07 A3008 RMK AO2 SLP188 T00940067
Loading
Personal Weather Stations






























Interactive Weather Map New forecast layout! Learn more

10-Day Weather Forecast

Advertisements
Track Severe Weather on mobile